aviador You're here:

CYZU Decoded Metar

WHITECOURT in AB, CANADA
Report Time2018-07-17 01:00:00
UTC Time2018-07-17 01:56:10
Flight Rules vfr VFR
Wind340° at 06 kt
W.Decomp.*RWY 29: 5.1 kt HW 3.1 kt RCW
W.Rank340° ranks 18
Current wind is below 340° avg. (6.3)
Visibility9999 m
Phenomena:N/A
Clouds:Few 100 Hf
Expected CloudBase > 7,200 ft AGL from Temp-Dew spread
CeilingNone
Temp28°C (ISA +18)
Dew Point10°C (32% RH)
Heat Index27.2°C
AAT25.8°C
QNH1013 hPa
Density Alt4,816 ft
Elevation2,575 ft
Report Wrong Elevation
Raw Report
CYZU 170100Z 34006KT 310V020 15SM FEW100 28/10 A2992 RMK AC1 AC TR
SLP129 DENSITY ALT 4700FT=

Extra information for CYZU:More info

Metar Taf Metar & Taf Last 4 Metars F.Rules Stats Wind Profile Meteogram Temp Stats Airport Information Weather charts Add Link Nearby VenuesMetar ALERT Operation Metar Decoded Social comments